Latest Weather Observations for Nuriootpa

IDS60901

Issued at 2:41 am CDT Thursday 23 November 2017 (issued every 10 minutes, with the page automatically refreshed every 10 minutes)

About weather observations | Map of Adelaide area stations | Latest observations for Adelaide area | Other Formats
Station Details ID: 023373 Name: NURIOOTPA PIRSA Lat: -34.48 Lon: 139.01 Height: 275.0 m
Data from the previous 72 hours. | See also: Recent months at Nuriootpa
Date/Time
CDT
Temp
°C
App
Temp
°C
Dew
Point
°C
Rel
Hum
%
Delta-T
°C
Wind Press
QNH
hPa
Press
MSL
hPa
Rain since
9am
mm
Dir  Spd
km/h
Gust
km/h
Spd
kts
Gust
kts
23/02:30am 19.7 19.0 14.4 71 3.1 WSW 11 15 6 8 1010.3 1009.6 1.2
23/02:00am 20.0 18.6 13.4 65 3.8 W 13 17 7 9 1010.0 1009.3 1.2
23/01:30am 18.6 18.4 14.7 78 2.3 ESE 9 13 5 7 1009.5 1008.8 1.2
23/01:00am 18.0 20.1 16.3 90 1.0 CALM 0 0 0 0 1009.5 1008.8 1.2
23/12:30am 18.1 18.3 15.8 86 1.4 ENE 9 13 5 7 1009.9 1009.2 1.2
23/12:00am 18.1 17.6 15.9 87 1.3 ESE 13 20 7 11 1010.1 1009.4 1.2
 
Date/Time
CDT
Temp
°C
App
Temp
°C
Dew
Point
°C
Rel
Hum
%
Delta-T
°C
Wind Press
QNH
hPa
Press
MSL
hPa
Rain since
9am
mm
Dir  Spd
km/h
Gust
km/h
Spd
kts
Gust
kts
22/11:30pm 18.6 18.6 15.2 80 2.0 NNE 9 13 5 7 1010.6 1009.8 1.0
22/11:00pm 18.4 18.6 15.7 84 1.6 N 9 13 5 7 1009.8 1009.1 1.0
22/10:30pm 18.2 17.4 15.0 81 1.9 SE 13 19 7 10 1009.6 1008.9 0.8
22/10:00pm 17.9 15.9 15.0 83 1.7 SSW 19 26 10 14 1010.5 1009.7 0.6
22/09:58pm 18.0 16.3 14.6 80 2.0 SW 17 24 9 13 1010.5 1009.7 0.6
22/09:30pm 19.4 18.6 14.1 71 3.1 WSW 11 17 6 9 1012.5 1011.8 0.0
22/09:00pm 19.9 18.1 13.3 65 3.8 WNW 15 20 8 11 1012.5 1011.8 0.0
22/08:30pm 20.6 18.1 12.4 59 4.7 W 17 28 9 15 1011.7 1011.0 0.0
22/08:00pm 21.9 16.7 12.7 56 5.3 WNW 32 50 17 27 1012.2 1011.5 0.0
22/07:59pm 22.0 16.8 12.8 56 5.3 WNW 32 50 17 27 1012.2 1011.5 0.0
22/07:49pm 23.6 18.9 11.9 47 6.7 W 28 44 15 24 1011.8 1011.1 0.0
22/07:30pm 24.7 21.0 10.2 40 8.1 W 20 24 11 13 1011.4 1010.7 0.0
22/07:00pm 25.8 21.2 9.7 36 9.0 W 24 33 13 18 1010.7 1010.0 0.0
22/06:30pm 26.9 23.2 9.6 33 9.7 WSW 19 26 10 14 1009.9 1009.2 0.0
22/06:00pm 27.4 23.7 9.6 32 10.0 W 19 26 10 14 1009.8 1009.1 0.0
22/05:30pm 28.7 24.4 9.4 30 10.9 WSW 22 30 12 16 1009.3 1008.6 0.0
22/05:00pm 29.7 25.9 9.7 28 11.4 WSW 20 30 11 16 1009.4 1008.7 0.0
22/04:30pm 28.3 24.0 9.2 30 10.7 WSW 22 30 12 16 1009.4 1008.7 0.0
22/04:00pm 29.5 24.3 8.8 27 11.6 WSW 26 37 14 20 1009.7 1009.0 0.0
22/03:30pm 29.3 24.5 9.0 28 11.4 WSW 24 35 13 19 1009.9 1009.2 0.0
22/03:04pm 29.4 23.9 9.2 28 11.4 WSW 28 50 15 27 1010.3 1009.6 0.0
22/03:00pm 30.2 24.9 8.6 26 12.1 WSW 26 35 14 19 1010.3 1009.6 0.0
22/02:30pm 29.5 23.6 9.1 28 11.5 W 30 43 16 23 1010.7 1010.0 0.0
22/02:08pm 30.8 25.3 9.1 26 12.3 WNW 28 52 15 28 1010.6 1009.8 0.0
22/02:00pm 30.4 24.5 3.7 18 13.8 WNW 24 39 13 21 1010.5 1009.7 0.0
22/01:30pm 32.9 28.2 3.1 15 15.5 N 17 26 9 14 1010.5 1009.7 0.0
22/01:00pm 32.2 27.5 3.3 16 15.0 NNE 17 33 9 18 1011.0 1010.3 0.0
22/12:30pm 32.4 27.1 3.0 15 15.2 NE 20 44 11 24 1011.4 1010.7 0.0
22/12:00pm 32.2 26.6 3.3 16 15.0 NE 22 35 12 19 1011.7 1011.0 0.0
22/11:30am 31.6 25.9 3.1 16 14.7 NNE 22 39 12 21 1012.2 1011.5 0.0
22/11:00am 31.5 25.9 3.2 16 14.6 NNE 22 35 12 19 1012.5 1011.8 0.0
22/10:30am 30.7 24.2 2.5 16 14.3 NNE 26 37 14 20 1012.5 1011.8 0.0
22/10:00am 30.3 24.3 3.1 17 13.9 NNE 24 39 13 21 1012.7 1012.0 0.0
22/09:30am 29.9 24.0 3.7 19 13.5 NNE 24 35 13 19 1012.8 1012.1 0.0
22/09:00am 28.8 22.3 4.5 21 12.6 N 28 43 15 23 1013.0 1012.3 0.0
22/08:32am 27.8 21.0 2.9 20 12.5 NNE 28 46 15 25 1013.1 1012.4 0.0
22/08:30am 27.9 21.6 3.8 21 12.3 NNE 26 37 14 20 1013.1 1012.4 0.0
22/08:00am 27.0 21.9 4.0 23 11.7 NNE 20 32 11 17 1013.0 1012.3 0.0
22/07:30am 25.1 22.1 6.2 29 9.9 NNE 11 17 6 9 1012.9 1012.2 0.0
22/07:00am 22.8 19.6 5.2 32 8.9 NE 11 15 6 8 1012.8 1012.1 0.0
22/06:30am 21.6 18.7 4.7 33 8.4 NE 9 13 5 7 1012.4 1011.7 0.0
22/06:00am 20.9 18.1 5.1 35 7.9 NNE 9 13 5 7 1012.2 1011.5 0.0
22/05:30am 22.3 18.9 3.8 29 9.1 NNE 11 15 6 8 1012.0 1011.3 0.0
22/05:00am 22.5 19.1 3.8 29 9.2 NNE 11 15 6 8 1011.9 1011.2 0.0
22/04:30am 24.2 19.9 3.0 25 10.4 N 15 24 8 13 1011.9 1011.2 0.0
22/04:00am 24.9 19.5 2.7 23 10.9 NNE 20 32 11 17 1011.6 1010.9 0.0
22/03:30am 23.4 19.9 3.5 27 9.8 NNE 11 19 6 10 1011.8 1011.1 0.0
22/03:00am 23.9 20.5 3.8 27 10.0 N 11 19 6 10 1011.9 1011.2 0.0
22/02:30am 24.5 20.1 2.9 24 10.6 NNE 15 22 8 12 1011.9 1011.2 0.0
22/02:00am 25.0 20.7 3.2 24 10.8 NNE 15 20 8 11 1012.2 1011.5 0.0
22/01:30am 25.5 20.7 2.8 23 11.2 NE 17 24 9 13 1012.4 1011.7 0.0
22/01:00am 24.8 21.0 3.8 25 10.5 NE 13 22 7 12 1012.6 1011.9 0.0
22/12:30am 23.1 19.4 4.5 29 9.3 ENE 13 17 7 9 1012.9 1012.2 0.0
22/12:00am 20.6 18.0 6.3 39 7.3 NE 9 13 5 7 1013.1 1012.4 0.0
 
Date/Time
CDT
Temp
°C
App
Temp
°C
Dew
Point
°C
Rel
Hum
%
Delta-T
°C
Wind Press
QNH
hPa
Press
MSL
hPa
Rain since
9am
mm
Dir  Spd
km/h
Gust
km/h
Spd
kts
Gust
kts
21/11:30pm 20.5 18.0 6.4 40 7.2 ENE 9 13 5 7 1013.2 1012.5 0.0
21/11:00pm 20.7 18.1 6.1 38 7.4 NE 9 11 5 6 1013.3 1012.6 0.0
21/10:30pm 21.4 18.8 6.1 37 7.8 NE 9 13 5 7 1013.4 1012.7 0.0
21/10:00pm 21.5 18.8 5.7 35 8.0 NE 9 13 5 7 1013.5 1012.8 0.0
21/09:30pm 20.2 18.8 9.0 48 6.0 NE 6 9 3 5 1013.3 1012.6 0.0
21/09:00pm 21.1 19.4 8.3 43 6.8 ENE 7 11 4 6 1013.1 1012.4 0.0
21/08:30pm 25.8 22.8 4.0 24 11.0 NE 9 11 5 6 1012.9 1012.2 0.0
21/08:00pm 28.0 24.5 3.6 21 12.4 NE 11 15 6 8 1012.8 1012.1 0.0
21/07:30pm 30.1 25.4 1.2 15 14.3 NNE 15 22 8 12 1012.7 1012.0 0.0
21/07:00pm 30.8 26.4 2.8 17 14.3 NE 15 26 8 14 1012.5 1011.8 0.0
21/06:30pm 31.4 26.3 1.0 14 15.1 NNE 17 24 9 13 1012.3 1011.6 0.0
21/06:00pm 31.7 26.2 0.5 13 15.4 NE 19 28 10 15 1012.4 1011.7 0.0
21/05:30pm 31.8 26.0 -1.4 12 15.9 NE 19 28 10 15 1012.5 1011.8 0.0
21/05:00pm 32.3 26.5 -0.1 12 15.9 NNE 20 37 11 20 1012.7 1012.0 0.0
21/04:30pm 32.3 26.8 0.8 13 15.7 NNE 19 32 10 17 1012.8 1012.1 0.0
21/04:00pm 32.3 26.8 0.3 13 15.8 NE 19 37 10 20 1012.9 1012.2 0.0
21/03:30pm 31.9 26.2 0.6 13 15.5 NE 20 32 11 17 1013.3 1012.6 0.0
21/03:00pm 32.0 26.4 1.2 14 15.4 NE 20 39 11 21 1013.6 1012.9 0.0
21/02:30pm 31.6 26.2 1.5 14 15.1 E 19 32 10 17 1013.9 1013.3 0.0
21/02:00pm 31.9 26.2 2.6 15 15.0 NE 22 33 12 18 1014.5 1013.8 0.0
21/01:30pm 31.6 26.6 3.7 17 14.5 NNE 19 32 10 17 1014.9 1014.2 0.0
21/01:00pm 31.5 26.6 4.2 18 14.3 NE 19 30 10 16 1015.4 1014.7 0.0
21/12:30pm 31.8 27.0 4.5 18 14.4 NE 19 37 10 20 1015.5 1014.8 0.0
21/12:00pm 30.4 24.8 3.6 18 13.8 NNE 22 33 12 18 1016.0 1015.3 0.0
21/11:30am 30.4 24.3 4.7 19 13.5 NE 26 35 14 19 1016.2 1015.5 0.0
21/11:00am 29.9 24.9 6.3 22 12.7 NNE 22 39 12 21 1016.4 1015.7 0.0
21/10:30am 29.3 23.8 6.1 23 12.4 N 24 37 13 20 1016.6 1015.9 0.0
21/10:00am 28.5 23.5 6.4 24 11.8 NNE 22 35 12 19 1016.7 1016.0 0.0
21/09:30am 27.7 22.0 6.5 26 11.3 NNE 26 41 14 22 1016.6 1015.9 0.0
21/09:00am 27.1 21.8 6.6 27 10.9 NNE 24 37 13 20 1016.7 1016.0 0.0
21/08:30am 26.0 22.3 8.1 32 9.7 NE 17 28 9 15 1016.6 1015.9 0.0
21/08:00am 24.5 21.9 9.2 37 8.4 NE 13 22 7 12 1016.5 1015.8 0.0
21/07:30am 22.9 19.8 8.8 40 7.6 NE 15 24 8 13 1016.5 1015.8 0.0
21/07:00am 21.1 19.4 9.7 48 6.2 NE 9 17 5 9 1016.4 1015.7 0.0
21/06:30am 19.8 17.9 9.1 50 5.7 NE 9 15 5 8 1016.2 1015.5 0.0
21/06:00am 19.6 17.1 8.4 48 5.9 ENE 11 17 6 9 1016.0 1015.3 0.0
21/05:30am 19.6 18.0 8.6 49 5.8 NE 7 13 4 7 1015.9 1015.2 0.0
21/05:00am 19.1 18.9 9.1 52 5.3 CALM 0 0 0 0 1015.6 1014.9 0.0
21/04:30am 20.4 18.0 8.5 46 6.3 NE 11 17 6 9 1015.5 1014.8 0.0
21/04:00am 21.5 17.8 7.8 41 7.2 ENE 17 24 9 13 1015.4 1014.7 0.0
21/03:30am 21.8 18.1 8.0 41 7.3 ENE 17 28 9 15 1015.3 1014.6 0.0
21/03:00am 22.2 18.9 8.1 40 7.5 ENE 15 22 8 12 1015.2 1014.5 0.0
21/02:30am 22.6 19.3 8.2 39 7.7 ENE 15 20 8 11 1015.2 1014.5 0.0
21/02:00am 22.2 19.5 9.1 43 7.1 ENE 13 17 7 9 1015.2 1014.5 0.0
21/01:30am 22.6 19.8 8.4 40 7.6 ENE 13 19 7 10 1015.3 1014.6 0.0
21/01:00am 22.4 19.7 8.9 42 7.3 ENE 13 17 7 9 1015.4 1014.7 0.0
21/12:30am 22.9 20.2 8.8 40 7.6 ENE 13 17 7 9 1015.6 1014.9 0.0
21/12:00am 23.5 20.7 8.5 38 8.1 ENE 13 19 7 10 1015.7 1015.0 0.0
 
Date/Time
CDT
Temp
°C
App
Temp
°C
Dew
Point
°C
Rel
Hum
%
Delta-T
°C
Wind Press
QNH
hPa
Press
MSL
hPa
Rain since
9am
mm
Dir  Spd
km/h
Gust
km/h
Spd
kts
Gust
kts
20/11:30pm 23.6 20.8 8.6 38 8.1 ENE 13 17 7 9 1015.6 1014.9 0.0
20/11:00pm 24.3 21.4 8.1 35 8.7 ENE 13 20 7 11 1015.6 1014.9 0.0
20/10:30pm 24.7 22.2 8.2 35 8.9 ENE 11 15 6 8 1015.6 1014.9 0.0
20/10:00pm 25.2 22.6 7.7 32 9.4 ENE 11 17 6 9 1015.6 1014.9 0.0
20/09:30pm 24.6 22.6 8.6 36 8.7 ENE 9 13 5 7 1015.4 1014.7 0.0
20/09:00pm 25.6 23.4 7.8 32 9.6 ENE 9 15 5 8 1015.0 1014.3 0.0
20/08:30pm 26.2 24.2 8.5 32 9.7 ENE 9 13 5 7 1014.7 1014.0 0.0
20/08:00pm 28.1 24.6 7.2 26 11.3 ENE 15 20 8 11 1014.4 1013.7 0.0
20/07:30pm 29.2 25.4 7.4 25 11.9 NE 17 28 9 15 1014.3 1013.6 0.0
20/07:00pm 29.9 25.5 6.6 23 12.6 NE 19 28 10 15 1013.8 1013.2 0.0
20/06:30pm 30.4 25.9 6.9 23 12.8 NE 20 32 11 17 1013.6 1012.9 0.0
20/06:00pm 30.7 26.2 6.9 22 13.0 NE 20 33 11 18 1013.5 1012.8 0.0
20/05:30pm 31.3 27.3 8.2 23 12.9 NE 19 26 10 14 1013.6 1012.9 0.0
20/05:00pm 31.4 27.4 8.4 24 12.9 NE 19 28 10 15 1013.7 1013.0 0.0
20/04:30pm 31.0 26.6 7.4 23 13.0 NE 20 33 11 18 1013.8 1013.2 0.0
20/04:00pm 30.5 26.0 8.5 25 12.3 NE 22 37 12 20 1014.0 1013.4 0.0
20/03:30pm 30.4 26.4 9.2 26 12.0 NE 20 33 11 18 1014.3 1013.6 0.0
20/03:00pm 31.3 27.6 9.3 25 12.5 ENE 19 28 10 15 1014.6 1013.9 0.0
20/02:30pm 30.1 26.7 9.2 27 11.8 ENE 17 32 9 17 1014.9 1014.2 0.0
20/02:00pm 29.3 26.4 9.5 29 11.2 NE 15 32 8 17 1015.2 1014.5 0.0
20/01:30pm 30.7 26.4 9.4 26 12.1 NE 22 33 12 18 1015.6 1014.9 0.0
20/01:00pm 30.3 26.3 10.3 29 11.5 NE 22 37 12 20 1015.9 1015.2 0.0
20/12:30pm 29.5 24.9 9.8 29 11.2 NE 24 39 13 21 1016.2 1015.5 0.0
20/12:00pm 29.1 24.7 10.4 31 10.7 NE 24 37 13 20 1016.5 1015.8 0.0
20/11:30am 28.4 23.9 11.3 34 9.9 NE 26 46 14 25 1016.9 1016.3 0.0
20/11:00am 28.1 24.7 12.5 38 9.2 NE 22 33 12 18 1017.1 1016.5 0.0
20/10:30am 27.3 23.5 12.3 39 8.8 ENE 24 35 13 19 1017.2 1016.6 0.0
20/10:00am 26.4 22.9 12.1 41 8.3 ENE 22 32 12 17 1017.4 1016.8 0.0
20/09:30am 25.4 21.9 12.1 43 7.7 ENE 22 32 12 17 1017.6 1017.0 0.0
20/09:00am 24.4 20.8 11.9 45 7.2 ENE 22 32 12 17 1017.6 1017.0 0.0
20/08:30am 23.4 19.7 11.4 46 6.8 ENE 22 37 12 20 1017.8 1017.2 0.0
20/08:00am 22.8 19.1 11.5 49 6.4 ENE 22 32 12 17 1017.6 1017.0 0.0
20/07:30am 22.3 19.1 11.3 49 6.2 ENE 19 30 10 16 1017.5 1016.9 0.0
20/07:00am 21.3 18.1 11.1 52 5.7 ENE 19 24 10 13 1017.3 1016.7 0.0
20/06:30am 20.7 18.6 11.0 53 5.4 ENE 13 20 7 11 1017.0 1016.4 0.0
20/06:00am 20.6 18.4 10.8 53 5.4 ENE 13 20 7 11 1016.8 1016.1 0.0
20/05:30am 20.9 18.7 10.8 52 5.6 E 13 19 7 10 1016.5 1015.8 0.0
20/05:00am 21.0 18.8 10.7 51 5.7 E 13 20 7 11 1016.4 1015.7 0.0
20/04:30am 21.6 19.3 10.4 49 6.2 ENE 13 19 7 10 1016.2 1015.5 0.0
20/04:00am 22.1 19.8 10.3 47 6.5 ENE 13 22 7 12 1016.0 1015.3 0.0
20/03:30am 22.5 19.4 10.2 45 6.8 ENE 17 24 9 13 1015.6 1014.9 0.0
20/03:00am 22.6 19.4 9.9 44 7.0 ENE 17 28 9 15 1015.6 1014.9 0.0

Latest Capital City Observations: Canberra | Sydney | Melbourne | Brisbane | Adelaide | Perth | Hobart | Darwin

Other Formats:

Comma delimited format used in spreadsheet applications
http://www.bom.gov.au/fwo/IDS60901/IDS60901.94681.axf

JavaScript Object Notation format (JSON) in row-major order
http://www.bom.gov.au/fwo/IDS60901/IDS60901.94681.json